Time;durP1;ratioP1;P1;durP2;ratioP2;P2;SDS_P1;SDS_P2;PMS_P1;PMS_P2;Temp;Humidity;BMP_temperature;BMP_pressure;BME280_temperature;BME280_humidity;BME280_pressure;Samples;Min_cycle;Max_cycle;Signal;HPM_P1;HPM_P2
2023/03/23 00:01:21;;;;;;;20.90;16.85;;;11.00;99.90;;;;;;5096497;28;20247;-84
2023/03/23 00:03:52;;;;;;;25.95;17.58;;;11.00;99.90;;;;;;5096671;28;20202;-89
2023/03/23 00:06:21;;;;;;;24.88;18.00;;;11.00;99.90;;;;;;5096334;28;20160;-84
2023/03/23 00:08:49;;;;;;;24.45;17.42;;;10.90;99.90;;;;;;5096322;28;20207;-91
2023/03/23 00:11:20;;;;;;;45.17;23.90;;;10.90;99.90;;;;;;5095455;28;20223;-84
2023/03/23 00:13:51;;;;;;;29.45;22.83;;;10.80;99.90;;;;;;5094883;28;20239;-90
2023/03/23 00:16:28;;;;;;;28.33;19.73;;;10.80;99.90;;;;;;5095218;28;20172;-83
2023/03/23 00:18:56;;;;;;;36.22;23.67;;;10.70;99.90;;;;;;5097302;28;20552;-84
2023/03/23 00:21:35;;;;;;;28.08;21.58;;;10.60;99.90;;;;;;5100272;28;20172;-83
2023/03/23 00:24:06;;;;;;;30.92;22.15;;;10.60;99.90;;;;;;5096056;28;20184;-90
2023/03/23 00:26:36;;;;;;;30.40;23.48;;;10.60;99.90;;;;;;5094975;28;20264;-91
2023/03/23 00:29:03;;;;;;;50.75;28.95;;;10.60;99.90;;;;;;5095947;28;20176;-90
2023/03/23 00:31:31;;;;;;;96.55;42.90;;;10.60;99.90;;;;;;5094851;28;20221;-83
2023/03/23 00:33:58;;;;;;;85.38;40.25;;;10.60;99.90;;;;;;5094750;28;20223;-90
2023/03/23 00:36:25;;;;;;;68.03;34.45;;;10.60;99.90;;;;;;5094635;28;20172;-90
2023/03/23 00:38:51;;;;;;;72.10;34.78;;;10.60;99.90;;;;;;5095857;28;20238;-83
2023/03/23 00:41:17;;;;;;;58.87;29.97;;;10.60;99.90;;;;;;5094598;28;20521;-83
2023/03/23 00:43:43;;;;;;;47.90;27.40;;;10.60;99.90;;;;;;5094571;28;20227;-84
2023/03/23 00:46:09;;;;;;;44.77;26.03;;;10.50;99.90;;;;;;5094672;28;20413;-86
2023/03/23 00:48:40;;;;;;;50.05;29.08;;;10.50;99.90;;;;;;5095670;28;20196;-90
2023/03/23 00:51:11;;;;;;;69.90;33.42;;;10.50;99.90;;;;;;5095702;28;20163;-83
2023/03/23 00:53:39;;;;;;;66.47;33.17;;;10.40;99.90;;;;;;5094229;28;20265;-87
2023/03/23 00:56:07;;;;;;;69.72;32.25;;;10.40;99.90;;;;;;5094279;28;20173;-90
2023/03/23 00:58:33;;;;;;;60.08;29.55;;;10.40;99.90;;;;;;5095459;28;20208;-84
2023/03/23 01:00:59;;;;;;;50.08;28.80;;;10.40;99.90;;;;;;5094557;28;20177;-90
2023/03/23 01:03:25;;;;;;;49.90;28.50;;;10.40;99.90;;;;;;5096056;28;20241;-84
2023/03/23 01:05:52;;;;;;;40.53;26.15;;;10.40;99.90;;;;;;5095386;28;20169;-90
2023/03/23 01:08:19;;;;;;;34.80;23.42;;;10.30;99.90;;;;;;5094056;28;20215;-83
2023/03/23 01:10:46;;;;;;;44.67;25.85;;;10.30;99.90;;;;;;5095071;28;20176;-89
2023/03/23 01:13:12;;;;;;;45.20;26.35;;;10.30;99.90;;;;;;5094043;28;20239;-91
2023/03/23 01:15:38;;;;;;;45.88;26.27;;;10.30;99.90;;;;;;5095199;28;20204;-90
2023/03/23 01:18:04;;;;;;;43.90;25.63;;;10.20;99.90;;;;;;5094876;28;20547;-84
2023/03/23 01:20:31;;;;;;;43.43;27.17;;;10.10;99.90;;;;;;5094722;28;20169;-90
2023/03/23 01:23:00;;;;;;;48.60;27.25;;;10.10;99.90;;;;;;5095120;28;20425;-84
2023/03/23 01:25:36;;;;;;;46.50;27.23;;;10.10;99.90;;;;;;5094947;28;20221;-89
2023/03/23 01:28:02;;;;;;;47.83;26.20;;;10.10;99.90;;;;;;5093537;28;20200;-83
2023/03/23 01:30:28;;;;;;;41.13;24.73;;;10.00;99.90;;;;;;5095088;28;20169;-90
2023/03/23 01:32:55;;;;;;;41.33;26.40;;;10.00;99.90;;;;;;5094874;28;20196;-84
2023/03/23 01:35:21;;;;;;;41.45;25.55;;;10.00;99.90;;;;;;5094970;28;20464;-90
2023/03/23 01:37:47;;;;;;;41.53;25.80;;;10.00;99.90;;;;;;5094229;28;20669;-90
2023/03/23 01:40:14;;;;;;;34.17;24.80;;;10.00;99.90;;;;;;5095248;28;20471;-82
2023/03/23 01:42:41;;;;;;;33.47;22.85;;;9.90;99.90;;;;;;5096462;28;20595;-91
2023/03/23 01:45:19;;;;;;;42.20;23.67;;;9.90;99.90;;;;;;5097545;28;20172;-83
2023/03/23 01:47:46;;;;;;;36.90;23.50;;;9.90;99.90;;;;;;5097230;28;20284;-90
2023/03/23 01:50:12;;;;;;;36.05;23.02;;;9.80;99.90;;;;;;5094836;28;20534;-83
2023/03/23 01:52:39;;;;;;;40.70;24.30;;;9.80;99.90;;;;;;5094492;28;20207;-84
2023/03/23 01:55:05;;;;;;;33.65;22.73;;;9.70;99.90;;;;;;5094244;28;20460;-83
2023/03/23 01:57:31;;;;;;;35.47;24.10;;;9.70;99.90;;;;;;5094920;28;20193;-91
2023/03/23 02:00:07;;;;;;;32.95;21.77;;;9.80;99.90;;;;;;5094385;28;20168;-84
2023/03/23 02:02:35;;;;;;;30.40;20.38;;;9.80;99.90;;;;;;5094302;28;20337;-89
2023/03/23 02:05:08;;;;;;;31.50;22.70;;;9.90;99.90;;;;;;5094379;28;20573;-90
2023/03/23 02:07:34;;;;;;;33.58;23.52;;;9.90;99.90;;;;;;5092992;28;20286;-84
2023/03/23 02:10:00;;;;;;;35.08;24.52;;;9.80;99.90;;;;;;5094255;28;20196;-90
2023/03/23 02:12:26;;;;;;;39.77;26.20;;;9.90;99.90;;;;;;5094101;28;20740;-86
2023/03/23 02:14:52;;;;;;;34.03;24.80;;;9.80;99.90;;;;;;5093986;28;20477;-84
2023/03/23 02:17:41;;;;;;;32.33;23.63;;;9.80;99.90;;;;;;5093021;28;20199;-91
2023/03/23 02:20:14;;;;;;;33.42;23.88;;;9.80;99.90;;;;;;5094150;28;20402;-90
2023/03/23 02:23:12;;;;;;;40.45;26.05;;;9.80;99.90;;;;;;5094143;28;20245;-90
2023/03/23 02:25:58;;;;;;;32.17;22.75;;;9.80;99.90;;;;;;5094459;28;20535;-91
2023/03/23 02:28:29;;;;;;;31.10;21.08;;;9.70;99.90;;;;;;5092910;28;20201;-91
2023/03/23 02:31:17;;;;;;;32.60;19.80;;;9.70;99.90;;;;;;5095307;28;20196;-83
2023/03/23 02:34:00;;;;;;;29.77;21.42;;;9.60;99.90;;;;;;5098413;28;20212;-91
2023/03/23 02:36:37;;;;;;;35.90;22.15;;;9.50;99.90;;;;;;5098484;28;20168;-89
2023/03/23 02:39:35;;;;;;;34.25;22.10;;;9.60;99.90;;;;;;5102306;28;20172;-91
2023/03/23 02:42:09;;;;;;;32.92;20.90;;;9.60;99.90;;;;;;5114615;28;20203;-83
2023/03/23 02:44:38;;;;;;;30.73;20.75;;;9.50;99.90;;;;;;5100678;28;20640;-84
2023/03/23 02:47:08;;;;;;;30.90;20.35;;;9.40;99.90;;;;;;5100056;28;20600;-90
2023/03/23 02:49:37;;;;;;;31.85;20.65;;;9.40;99.90;;;;;;5098089;28;20176;-90
2023/03/23 02:52:12;;;;;;;29.70;20.25;;;9.30;99.90;;;;;;5096686;28;20669;-90
2023/03/23 02:54:39;;;;;;;31.35;20.30;;;9.30;99.90;;;;;;5096672;28;20742;-87
2023/03/23 02:57:05;;;;;;;28.95;19.83;;;9.30;99.90;;;;;;5097677;28;20673;-83
2023/03/23 02:59:32;;;;;;;29.85;20.42;;;9.20;99.90;;;;;;5097756;28;20572;-90
2023/03/23 03:02:09;;;;;;;28.75;18.30;;;9.20;99.90;;;;;;5096377;28;20305;-83
2023/03/23 03:04:40;;;;;;;27.65;18.75;;;9.20;99.90;;;;;;5096716;28;20173;-83
2023/03/23 03:07:35;;;;;;;28.13;20.20;;;9.10;99.90;;;;;;5097462;28;20192;-91
2023/03/23 03:10:11;;;;;;;33.80;21.13;;;9.00;99.90;;;;;;5096512;28;20547;-91
2023/03/23 03:13:06;;;;;;;33.38;21.30;;;8.90;99.90;;;;;;5097274;28;20557;-90
2023/03/23 03:15:41;;;;;;;29.42;21.15;;;8.80;99.90;;;;;;5097541;28;20567;-90
2023/03/23 03:18:16;;;;;;;25.02;18.98;;;8.80;99.90;;;;;;5097680;28;20195;-83
2023/03/23 03:20:50;;;;;;;37.47;21.58;;;8.70;99.90;;;;;;5097415;28;20149;-83
2023/03/23 03:23:18;;;;;;;41.05;22.95;;;8.70;99.90;;;;;;5099818;28;20722;-83
2023/03/23 03:25:49;;;;;;;35.33;21.90;;;8.80;99.90;;;;;;5096269;28;20276;-90
2023/03/23 03:28:21;;;;;;;28.85;21.88;;;8.80;99.90;;;;;;5097434;28;20200;-91
2023/03/23 03:30:55;;;;;;;31.40;22.17;;;8.80;99.90;;;;;;5096013;28;20204;-90
2023/03/23 03:33:25;;;;;;;32.35;22.23;;;8.80;99.90;;;;;;5095871;28;20675;-91
2023/03/23 03:35:53;;;;;;;35.65;23.48;;;8.80;99.90;;;;;;5097093;28;20168;-84
2023/03/23 03:38:19;;;;;;;37.40;22.92;;;8.80;99.90;;;;;;5097087;28;20545;-84
2023/03/23 03:40:45;;;;;;;38.37;23.83;;;8.80;99.90;;;;;;5095803;28;20221;-85
2023/03/23 03:43:11;;;;;;;39.50;25.10;;;8.80;99.90;;;;;;5094957;28;20486;-84
2023/03/23 03:45:37;;;;;;;37.83;25.43;;;8.90;99.90;;;;;;5096924;28;20172;-83
2023/03/23 03:48:03;;;;;;;37.53;24.70;;;8.90;99.90;;;;;;5097079;28;20208;-90
2023/03/23 03:50:29;;;;;;;42.33;25.88;;;8.90;99.90;;;;;;5095751;28;20169;-83
2023/03/23 03:52:54;;;;;;;40.63;26.57;;;8.90;99.90;;;;;;5095398;28;20216;-91
2023/03/23 03:55:20;;;;;;;36.77;25.10;;;8.80;99.90;;;;;;5095358;28;20204;-84
2023/03/23 03:57:46;;;;;;;38.53;24.67;;;8.80;99.90;;;;;;5095137;28;20452;-91
2023/03/23 04:00:14;;;;;;;35.92;24.25;;;8.80;99.90;;;;;;5095487;28;20417;-83
2023/03/23 04:02:42;;;;;;;37.50;24.70;;;8.70;99.90;;;;;;5095267;28;20220;-90
2023/03/23 04:05:09;;;;;;;35.50;23.90;;;8.80;99.90;;;;;;5095704;28;20210;-83
2023/03/23 04:07:38;;;;;;;40.63;24.02;;;8.90;99.90;;;;;;5100660;28;20207;-83
2023/03/23 04:10:05;;;;;;;32.28;21.83;;;9.10;99.90;;;;;;5101964;28;20228;-90
2023/03/23 04:12:31;;;;;;;33.33;21.58;;;9.20;99.90;;;;;;5098281;28;20219;-91
2023/03/23 04:14:57;;;;;;;28.97;21.23;;;9.30;99.90;;;;;;5095242;28;20231;-85
2023/03/23 04:17:25;;;;;;;37.05;24.23;;;9.40;99.90;;;;;;5096185;28;20433;-90
2023/03/23 04:19:52;;;;;;;34.92;22.40;;;9.40;99.90;;;;;;5095301;28;20272;-90
2023/03/23 04:22:18;;;;;;;33.67;22.27;;;9.40;99.90;;;;;;5094856;28;20200;-83
2023/03/23 04:24:43;;;;;;;32.30;21.67;;;9.40;99.90;;;;;;5096596;28;20181;-83
2023/03/23 04:27:12;;;;;;;33.73;22.00;;;9.40;99.90;;;;;;5094558;28;20684;-91
2023/03/23 04:29:38;;;;;;;35.97;23.55;;;9.40;99.90;;;;;;5094905;28;20429;-84
2023/03/23 04:32:04;;;;;;;29.80;22.23;;;9.40;99.90;;;;;;5094794;28;20192;-83
2023/03/23 04:34:32;;;;;;;34.33;22.50;;;9.40;99.90;;;;;;5094850;28;20304;-83
2023/03/23 04:36:58;;;;;;;31.02;20.95;;;9.30;99.90;;;;;;5096023;28;20192;-89
2023/03/23 04:39:24;;;;;;;34.30;23.20;;;9.30;99.90;;;;;;5094629;28;20185;-90
2023/03/23 04:41:51;;;;;;;32.30;22.70;;;9.20;99.90;;;;;;5094623;28;20196;-83
2023/03/23 04:44:17;;;;;;;30.50;20.83;;;9.10;99.90;;;;;;5096309;28;20267;-90
2023/03/23 04:46:45;;;;;;;31.95;23.05;;;9.10;99.90;;;;;;5095085;28;20214;-85
2023/03/23 04:49:11;;;;;;;47.78;29.45;;;9.10;99.90;;;;;;5095884;28;20268;-84
2023/03/23 04:51:39;;;;;;;40.03;25.30;;;9.00;99.90;;;;;;5094077;28;20631;-88
2023/03/23 04:54:04;;;;;;;37.92;24.98;;;8.90;99.90;;;;;;5092142;28;20465;-88
2023/03/23 04:56:30;;;;;;;38.30;25.43;;;9.00;99.90;;;;;;5095920;28;20267;-89
2023/03/23 04:58:56;;;;;;;46.43;25.23;;;9.00;99.90;;;;;;5085711;28;20440;-88
2023/03/23 05:01:22;;;;;;;39.60;26.23;;;9.00;99.90;;;;;;5093680;28;20546;-88
2023/03/23 05:03:47;;;;;;;38.33;24.70;;;9.10;99.90;;;;;;5093567;28;20693;-84
2023/03/23 05:06:14;;;;;;;40.80;26.03;;;9.10;99.90;;;;;;5093531;28;20184;-89
2023/03/23 05:08:40;;;;;;;38.63;25.52;;;9.10;99.90;;;;;;5094145;28;20265;-85
2023/03/23 05:11:06;;;;;;;38.10;24.90;;;9.10;99.90;;;;;;5092108;28;20208;-88
2023/03/23 05:13:32;;;;;;;44.40;25.02;;;9.10;99.90;;;;;;5091410;28;20250;-89
2023/03/23 05:15:58;;;;;;;35.27;24.90;;;9.20;99.90;;;;;;5093691;28;20180;-85
2023/03/23 05:18:24;;;;;;;39.47;25.90;;;9.40;99.90;;;;;;5093697;28;20432;-84
2023/03/23 05:20:52;;;;;;;37.00;23.43;;;9.50;99.90;;;;;;5093393;28;20188;-83
2023/03/23 05:23:20;;;;;;;31.60;23.48;;;9.60;99.90;;;;;;5094922;28;20669;-84
2023/03/23 05:25:53;;;;;;;41.63;24.58;;;9.60;99.90;;;;;;5093306;28;20181;-86
2023/03/23 05:28:18;;;;;;;44.28;25.75;;;9.60;99.90;;;;;;5094294;28;20192;-88
2023/03/23 05:30:44;;;;;;;34.57;23.30;;;9.60;99.90;;;;;;5094568;28;20225;-89
2023/03/23 05:33:10;;;;;;;40.40;24.80;;;9.70;99.90;;;;;;5092594;28;20180;-83
2023/03/23 05:35:36;;;;;;;37.87;25.10;;;9.70;99.90;;;;;;5091105;28;20215;-83
2023/03/23 05:38:03;;;;;;;45.72;28.38;;;9.80;99.90;;;;;;5091192;28;20215;-84
2023/03/23 05:40:29;;;;;;;45.28;29.48;;;9.80;99.90;;;;;;5091559;28;20592;-83
2023/03/23 05:42:58;;;;;;;49.00;30.30;;;9.90;99.90;;;;;;5092618;28;20185;-83
2023/03/23 05:45:26;;;;;;;49.92;31.40;;;10.00;99.90;;;;;;5092857;28;20186;-83
2023/03/23 05:47:51;;;;;;;49.72;27.25;;;10.00;99.90;;;;;;5092267;28;20197;-83
2023/03/23 05:50:17;;;;;;;42.63;28.97;;;10.10;99.90;;;;;;5092748;28;20543;-83
2023/03/23 05:52:43;;;;;;;45.80;29.70;;;10.10;99.90;;;;;;5093470;28;20195;-83
2023/03/23 05:55:09;;;;;;;47.50;28.77;;;10.20;99.90;;;;;;5094074;28;20302;-84
2023/03/23 05:57:35;;;;;;;42.65;30.08;;;10.30;99.90;;;;;;5092599;28;20227;-83
2023/03/23 06:00:11;;;;;;;47.20;30.90;;;10.40;99.90;;;;;;5092055;28;20248;-88
2023/03/23 06:02:37;;;;;;;46.10;31.50;;;10.40;99.90;;;;;;5094270;28;20203;-85
2023/03/23 06:05:02;;;;;;;49.87;32.97;;;10.40;99.90;;;;;;5093117;28;20317;-84
2023/03/23 06:07:29;;;;;;;42.33;30.50;;;10.50;99.90;;;;;;5092430;28;20202;-89
2023/03/23 06:09:55;;;;;;;44.72;30.70;;;10.50;99.90;;;;;;5092420;28;20433;-89
2023/03/23 06:12:21;;;;;;;46.97;31.23;;;10.70;99.90;;;;;;5093646;28;20571;-84
2023/03/23 06:14:48;;;;;;;50.53;32.88;;;10.80;99.90;;;;;;5091148;28;20258;-88
2023/03/23 06:17:17;;;;;;;43.17;30.25;;;10.90;99.90;;;;;;5087891;28;20282;-89
2023/03/23 06:19:45;;;;;;;49.70;34.10;;;10.90;99.90;;;;;;5085350;28;20206;-84
2023/03/23 06:22:11;;;;;;;48.72;31.63;;;11.00;99.90;;;;;;5091638;28;20203;-87
2023/03/23 06:24:36;;;;;;;45.43;30.13;;;11.10;99.90;;;;;;5091779;28;20180;-85
2023/03/23 06:27:02;;;;;;;46.43;31.80;;;11.10;99.90;;;;;;5093671;28;20668;-85
2023/03/23 06:29:28;;;;;;;43.17;29.80;;;11.30;99.90;;;;;;5090260;28;20186;-83
2023/03/23 06:31:59;;;;;;;41.80;30.03;;;11.40;99.90;;;;;;5087225;28;21097;-87
2023/03/23 06:34:26;;;;;;;45.55;31.05;;;11.50;99.90;;;;;;5088971;28;20476;-88
2023/03/23 06:36:52;;;;;;;46.97;31.90;;;11.60;99.90;;;;;;5084182;28;20275;-88
2023/03/23 06:39:18;;;;;;;45.45;29.85;;;11.70;99.90;;;;;;5079145;28;20212;-88
2023/03/23 06:41:44;;;;;;;40.92;28.23;;;11.80;99.90;;;;;;5086973;28;20705;-88
2023/03/23 06:44:13;;;;;;;42.17;28.30;;;11.80;99.90;;;;;;5089841;28;20244;-84
2023/03/23 06:46:39;;;;;;;42.22;28.80;;;11.80;99.90;;;;;;5084011;28;20253;-83
2023/03/23 06:49:05;;;;;;;36.70;24.60;;;12.00;99.90;;;;;;5085968;28;20208;-83
2023/03/23 06:51:31;;;;;;;34.07;23.80;;;12.10;99.90;;;;;;5080244;28;20652;-84
2023/03/23 06:53:57;;;;;;;39.80;24.00;;;12.30;99.90;;;;;;5087304;28;20224;-84
2023/03/23 06:56:23;;;;;;;38.40;26.77;;;12.40;99.90;;;;;;5088675;28;20192;-90
2023/03/23 06:58:49;;;;;;;37.57;26.87;;;12.50;99.90;;;;;;5087519;28;20292;-85
2023/03/23 07:01:15;;;;;;;33.70;24.07;;;12.60;99.90;;;;;;5091393;28;20519;-85
2023/03/23 07:03:42;;;;;;;36.27;25.60;;;12.70;99.90;;;;;;5090917;28;20192;-89
2023/03/23 07:06:09;;;;;;;37.77;25.40;;;12.80;99.90;;;;;;5088657;28;20532;-84
2023/03/23 07:08:38;;;;;;;32.57;25.50;;;13.00;99.90;;;;;;5089196;28;20445;-85
2023/03/23 07:11:04;;;;;;;36.90;25.40;;;13.20;99.90;;;;;;5088788;28;20437;-84
2023/03/23 07:13:31;;;;;;;37.87;25.47;;;13.30;99.90;;;;;;5085411;28;20856;-89
2023/03/23 07:15:57;;;;;;;38.60;26.00;;;13.40;99.90;;;;;;5086713;28;20436;-85
2023/03/23 07:18:23;;;;;;;34.33;25.03;;;13.50;99.90;;;;;;5089636;28;20445;-85
2023/03/23 07:20:53;;;;;;;32.93;23.60;;;13.70;99.90;;;;;;5090687;28;20471;-83
2023/03/23 07:23:24;;;;;;;31.30;23.10;;;13.90;99.90;;;;;;5087771;28;20417;-92
2023/03/23 07:25:50;;;;;;;36.93;24.77;;;14.00;99.90;;;;;;5072336;28;20930;-84
2023/03/23 07:28:16;;;;;;;32.60;25.73;;;14.20;99.90;;;;;;5078483;28;20460;-90
2023/03/23 07:30:43;;;;;;;36.17;25.73;;;14.40;99.90;;;;;;5091811;28;20179;-91
2023/03/23 07:33:09;;;;;;;29.67;23.83;;;14.60;99.90;;;;;;5092063;28;20493;-85
2023/03/23 07:35:35;;;;;;;28.87;22.67;;;14.80;99.90;;;;;;5090211;28;21011;-85
2023/03/23 07:38:02;;;;;;;33.17;23.17;;;15.00;99.90;;;;;;5082095;28;20445;-85
2023/03/23 07:40:28;;;;;;;27.93;23.57;;;15.20;99.90;;;;;;5080384;28;20429;-89
2023/03/23 07:42:57;;;;;;;30.57;22.77;;;15.40;99.90;;;;;;5076111;28;21230;-88
2023/03/23 07:45:23;;;;;;;30.00;21.03;;;15.50;99.90;;;;;;5061708;28;20719;-83
2023/03/23 07:47:50;;;;;;;73.20;46.63;;;15.60;99.90;;;;;;5062885;28;20610;-87
2023/03/23 07:50:17;;;;;;;24.83;20.03;;;15.80;99.90;;;;;;5062599;28;20442;-87
2023/03/23 07:52:44;;;;;;;22.17;18.67;;;15.90;99.90;;;;;;5081181;27;20456;-90
2023/03/23 07:55:17;;;;;;;24.50;18.53;;;16.10;99.90;;;;;;5075921;28;20858;-89
2023/03/23 07:57:44;;;;;;;21.60;18.47;;;16.20;99.90;;;;;;5071760;28;20535;-87
2023/03/23 08:00:18;;;;;;;22.63;17.83;;;16.40;99.90;;;;;;5078127;28;20429;-87
2023/03/23 08:02:48;;;;;;;32.40;26.80;;;16.50;99.90;;;;;;5093088;28;20934;-83
2023/03/23 08:05:15;;;;;;;25.23;19.07;;;16.70;99.90;;;;;;5088131;28;20436;-87
2023/03/23 08:07:42;;;;;;;21.60;18.53;;;16.90;99.90;;;;;;5093536;28;20417;-86
2023/03/23 08:10:12;;;;;;;22.00;16.43;;;17.10;99.90;;;;;;5092831;28;20485;-83
2023/03/23 08:12:42;;;;;;;24.07;16.30;;;17.30;99.90;;;;;;5094289;28;20459;-86
2023/03/23 08:15:14;;;;;;;21.10;18.63;;;17.30;99.90;;;;;;5094314;28;20488;-87
2023/03/23 08:17:41;;;;;;;23.70;18.83;;;17.40;99.90;;;;;;5092667;28;20514;-90
2023/03/23 08:20:10;;;;;;;24.23;18.10;;;17.50;99.90;;;;;;5094783;28;21005;-86
2023/03/23 08:22:37;;;;;;;23.30;16.53;;;17.60;99.90;;;;;;5092926;28;20439;-88
2023/03/23 08:25:06;;;;;;;21.00;16.80;;;17.80;99.90;;;;;;5092058;28;20416;-86
2023/03/23 08:27:32;;;;;;;21.30;17.13;;;18.20;99.90;;;;;;5092908;28;20538;-85
2023/03/23 08:29:59;;;;;;;21.33;16.40;;;18.90;99.90;;;;;;5090877;28;20489;-85
2023/03/23 08:32:25;;;;;;;17.17;15.30;;;19.80;99.90;;;;;;5092275;28;20526;-86
2023/03/23 08:34:52;;;;;;;18.23;16.27;;;21.00;98.10;;;;;;5092374;28;20883;-92
2023/03/23 08:37:18;;;;;;;18.23;15.50;;;22.20;96.00;;;;;;5094081;28;20437;-87
2023/03/23 08:39:44;;;;;;;19.17;15.60;;;23.40;93.80;;;;;;5094022;28;20419;-86
2023/03/23 08:42:11;;;;;;;16.87;14.60;;;24.40;91.40;;;;;;5090893;28;20458;-89
2023/03/23 08:44:37;;;;;;;19.10;15.00;;;25.20;90.00;;;;;;5087255;28;20183;-89
2023/03/23 08:47:04;;;;;;;14.93;12.70;;;26.10;87.20;;;;;;5093944;28;20452;-89
2023/03/23 08:49:32;;;;;;;11.33;10.23;;;27.00;82.50;;;;;;5093034;28;20466;-86
2023/03/23 08:51:59;;;;;;;12.40;11.17;;;27.20;77.80;;;;;;5081264;28;20461;-90
2023/03/23 08:54:25;;;;;;;10.80;9.70;;;27.30;78.00;;;;;;5087739;28;20900;-90
2023/03/23 08:56:51;;;;;;;9.90;8.90;;;27.70;74.30;;;;;;5095183;28;20444;-86
2023/03/23 08:59:17;;;;;;;10.17;9.17;;;27.30;74.50;;;;;;5094949;28;20413;-90
2023/03/23 09:01:42;;;;;;;12.77;11.60;;;27.40;72.80;;;;;;5082561;28;20189;-87
2023/03/23 09:04:09;;;;;;;29.83;16.07;;;27.20;72.30;;;;;;5082990;28;20440;-87
2023/03/23 09:06:36;;;;;;;11.03;9.93;;;26.80;71.60;;;;;;5092049;28;20177;-91
2023/03/23 09:09:06;;;;;;;11.80;9.00;;;26.70;73.10;;;;;;5084252;28;20852;-87
2023/03/23 09:11:34;;;;;;;9.20;8.30;;;26.30;71.40;;;;;;5082392;28;20446;-90
2023/03/23 09:14:00;;;;;;;8.40;7.70;;;26.20;71.40;;;;;;5092464;28;20477;-91
2023/03/23 09:16:27;;;;;;;8.67;7.87;;;26.10;72.80;;;;;;5089677;28;21009;-90
2023/03/23 09:18:53;;;;;;;7.97;7.17;;;25.90;71.80;;;;;;5089795;28;20437;-89
2023/03/23 09:21:20;;;;;;;9.37;7.70;;;25.90;72.30;;;;;;5088922;28;20569;-90
2023/03/23 09:23:46;;;;;;;8.10;7.30;;;25.90;71.90;;;;;;5086629;28;20449;-86
2023/03/23 09:26:12;;;;;;;7.00;6.40;;;25.70;71.60;;;;;;5087567;28;20467;-88
2023/03/23 09:28:37;;;;;;;7.33;6.63;;;25.70;72.40;;;;;;5090355;28;20464;-91
2023/03/23 09:31:04;;;;;;;7.50;6.80;;;25.40;71.60;;;;;;5091112;28;20544;-84
2023/03/23 09:33:33;;;;;;;8.70;7.90;;;25.20;72.30;;;;;;5094752;28;20261;-90
2023/03/23 09:35:59;;;;;;;7.77;6.97;;;25.20;72.30;;;;;;5091413;28;20456;-88
2023/03/23 09:38:25;;;;;;;5.20;4.80;;;25.80;73.30;;;;;;5090555;28;20801;-88
2023/03/23 09:41:24;;;;;;;7.10;6.40;;;26.40;70.30;;;;;;5087170;28;20429;-87
2023/03/23 09:44:14;;;;;;;7.97;7.27;;;26.80;70.30;;;;;;5077077;28;20977;-88
2023/03/23 09:46:40;;;;;;;6.10;5.50;;;26.80;69.60;;;;;;5086732;28;20820;-89
2023/03/23 09:49:13;;;;;;;4.97;4.47;;;26.40;69.30;;;;;;5088106;28;20440;-88
2023/03/23 09:51:38;;;;;;;8.17;6.00;;;26.00;68.70;;;;;;5089175;28;20262;-86
2023/03/23 09:54:20;;;;;;;5.27;4.77;;;25.90;70.10;;;;;;5089855;28;20519;-86
2023/03/23 09:56:47;;;;;;;10.20;8.73;;;26.00;70.30;;;;;;5072024;28;20181;-90
2023/03/23 09:59:46;;;;;;;6.57;5.37;;;25.90;68.90;;;;;;5092447;28;20451;-86
2023/03/23 10:02:17;;;;;;;6.60;5.90;;;26.00;69.00;;;;;;5090010;28;20445;-87
2023/03/23 10:04:49;;;;;;;5.87;5.30;;;25.70;69.30;;;;;;5090246;28;20423;-89
2023/03/23 10:07:18;;;;;;;5.87;5.37;;;25.50;68.90;;;;;;5091711;28;20445;-89
2023/03/23 10:09:48;;;;;;;6.47;5.87;;;25.00;69.60;;;;;;5083673;28;20443;-87
2023/03/23 10:12:36;;;;;;;6.00;5.40;;;24.80;70.00;;;;;;5089043;28;20801;-86
2023/03/23 10:15:23;;;;;;;6.00;5.50;;;24.80;69.70;;;;;;5089263;28;20472;-90
2023/03/23 10:18:31;;;;;;;7.03;5.20;;;24.50;70.50;;;;;;5089670;28;20563;-87
2023/03/23 10:20:59;;;;;;;5.27;4.80;;;24.20;70.30;;;;;;5089227;28;20440;-91
2023/03/23 10:23:48;;;;;;;6.03;5.13;;;23.70;70.40;;;;;;5087045;28;20436;-88
2023/03/23 10:26:48;;;;;;;7.37;5.47;;;23.60;71.70;;;;;;5086940;28;20807;-86
2023/03/23 10:29:29;;;;;;;6.23;4.60;;;23.40;72.50;;;;;;5086525;28;20452;-86
2023/03/23 10:32:04;;;;;;;5.53;4.93;;;23.00;72.90;;;;;;5085397;28;20439;-86
2023/03/23 10:34:40;;;;;;;5.27;4.77;;;22.90;73.10;;;;;;5087697;28;20548;-86
2023/03/23 10:37:13;;;;;;;5.23;4.73;;;23.00;72.90;;;;;;5083871;28;20899;-89
2023/03/23 10:39:59;;;;;;;6.33;5.37;;;22.70;73.00;;;;;;5087108;28;20929;-86
2023/03/23 10:42:27;;;;;;;4.90;4.40;;;22.40;73.90;;;;;;5087514;28;20462;-88
2023/03/23 10:44:56;;;;;;;4.97;4.30;;;22.40;73.50;;;;;;5088245;28;20438;-89
2023/03/23 10:47:22;;;;;;;4.53;4.13;;;22.40;74.00;;;;;;5088691;28;20487;-89
2023/03/23 10:49:53;;;;;;;5.60;4.90;;;22.20;75.00;;;;;;5086692;28;20430;-89
2023/03/23 10:52:37;;;;;;;8.53;4.73;;;22.20;73.70;;;;;;5090301;28;20554;-86
2023/03/23 10:55:13;;;;;;;7.00;5.40;;;22.00;74.40;;;;;;5089810;28;20851;-86
2023/03/23 10:57:42;;;;;;;5.47;4.70;;;21.80;75.90;;;;;;5087637;28;20990;-86
2023/03/23 11:00:26;;;;;;;5.43;4.90;;;21.90;75.80;;;;;;5087099;28;20435;-85
2023/03/23 11:03:06;;;;;;;5.70;5.17;;;22.00;75.00;;;;;;5089040;28;21224;-88
2023/03/23 11:05:40;;;;;;;4.73;4.33;;;22.30;75.10;;;;;;5084894;28;20502;-92
2023/03/23 11:08:20;;;;;;;8.00;7.20;;;22.50;74.70;;;;;;5092423;28;20440;-87
2023/03/23 11:10:50;;;;;;;4.30;3.90;;;22.60;74.90;;;;;;5089429;28;20799;-89
2023/03/23 11:13:19;;;;;;;7.80;6.97;;;22.60;73.60;;;;;;5081927;28;20469;-87
2023/03/23 11:15:47;;;;;;;10.60;8.90;;;22.50;73.40;;;;;;5090863;28;20568;-89
2023/03/23 11:18:26;;;;;;;8.37;7.50;;;22.40;74.70;;;;;;5093140;28;21005;-86
2023/03/23 11:20:58;;;;;;;4.47;4.07;;;22.60;75.40;;;;;;5092699;28;20995;-87
2023/03/23 11:23:34;;;;;;;5.27;4.77;;;22.80;74.30;;;;;;5078527;28;20469;-86
2023/03/23 11:26:21;;;;;;;7.20;5.90;;;22.80;74.30;;;;;;5085657;28;20925;-86
2023/03/23 11:29:01;;;;;;;5.00;4.60;;;23.00;74.00;;;;;;5087166;28;20457;-92
2023/03/23 11:31:41;;;;;;;5.63;5.13;;;23.00;73.70;;;;;;5078990;28;20444;-88
2023/03/23 11:34:24;;;;;;;5.67;5.17;;;22.80;73.10;;;;;;5080782;28;20523;-86
2023/03/23 11:36:55;;;;;;;5.17;4.63;;;22.80;73.40;;;;;;5087049;28;20450;-87
2023/03/23 11:39:31;;;;;;;5.50;5.03;;;22.60;74.10;;;;;;5094667;28;20419;-87
2023/03/23 11:42:11;;;;;;;5.20;4.70;;;22.50;74.00;;;;;;5093453;28;20965;-89
2023/03/23 11:44:44;;;;;;;6.07;5.47;;;22.60;73.90;;;;;;5089791;28;20867;-86
2023/03/23 11:47:22;;;;;;;5.30;4.80;;;22.80;74.30;;;;;;5081949;28;20602;-87
2023/03/23 11:49:51;;;;;;;4.73;4.20;;;23.00;74.50;;;;;;5085345;28;20591;-86
2023/03/23 11:52:29;;;;;;;5.03;4.60;;;22.80;74.00;;;;;;5089436;28;20978;-91
2023/03/23 11:55:23;;;;;;;5.53;4.80;;;22.70;74.60;;;;;;5088786;28;20495;-86
2023/03/23 11:57:49;;;;;;;5.00;4.60;;;22.80;74.90;;;;;;5086350;28;20445;-86
2023/03/23 12:00:20;;;;;;;5.93;5.20;;;22.70;73.50;;;;;;5091163;28;20471;-90
2023/03/23 12:03:25;;;;;;;5.60;5.10;;;22.80;73.90;;;;;;5086258;28;21002;-88
2023/03/23 12:05:57;;;;;;;5.10;4.47;;;22.90;74.80;;;;;;5087802;28;20439;-92
2023/03/23 12:08:58;;;;;;;6.50;5.10;;;22.90;74.50;;;;;;5084386;28;20846;-90
2023/03/23 12:11:56;;;;;;;4.60;4.20;;;22.90;73.60;;;;;;5078759;28;20444;-87
2023/03/23 12:14:41;;;;;;;4.40;4.00;;;22.90;74.00;;;;;;5091922;28;20492;-87
2023/03/23 12:17:10;;;;;;;4.63;4.20;;;22.80;74.40;;;;;;5090368;28;20518;-87
2023/03/23 12:20:11;;;;;;;5.23;4.70;;;22.90;74.00;;;;;;5085357;28;20763;-86
2023/03/23 12:22:52;;;;;;;5.27;4.73;;;22.90;74.20;;;;;;5094691;28;20516;-93
2023/03/23 12:25:27;;;;;;;5.10;4.70;;;22.90;73.60;;;;;;5095407;28;20445;-88
2023/03/23 12:28:01;;;;;;;4.47;4.07;;;22.70;74.20;;;;;;5091991;28;20462;-86
2023/03/23 12:30:55;;;;;;;4.53;4.23;;;22.70;73.90;;;;;;5093263;28;20506;-89
2023/03/23 12:33:29;;;;;;;6.70;6.10;;;22.50;74.00;;;;;;5092386;28;20452;-89
2023/03/23 12:36:03;;;;;;;4.70;4.30;;;22.50;73.80;;;;;;5089373;28;20572;-89
2023/03/23 12:39:06;;;;;;;4.60;4.20;;;22.60;74.70;;;;;;5088034;28;20472;-90
2023/03/23 12:41:57;;;;;;;5.10;4.60;;;22.80;74.40;;;;;;5084020;28;20979;-90
2023/03/23 12:44:43;;;;;;;5.10;4.60;;;22.90;74.30;;;;;;5086430;28;20460;-86
2023/03/23 12:47:44;;;;;;;5.57;5.00;;;22.80;73.50;;;;;;5088939;28;20478;-89
2023/03/23 12:50:13;;;;;;;4.60;4.20;;;22.70;73.00;;;;;;5085035;28;20429;-91
2023/03/23 12:53:01;;;;;;;5.10;4.10;;;22.50;74.10;;;;;;5087865;28;20459;-88
2023/03/23 12:55:32;;;;;;;5.30;4.80;;;22.50;74.10;;;;;;5086390;28;20472;-92